Lampasas, Texas
Current Conditions -  °F | °C
As of 1:55 PM on Saturday 25 Oct 2014 (Local Time) from KLZZ Reporting Station
Clear Clear  
Wind Chill: 83°   Ceiling: Unl
Heat Index: 84°   Visibility: 10mi
Dew Point: 62°   Wind: 6mph
Humidity: 49%   Direction: 200°SSW
Pressure: 30.13"   Gusts: NA
Location:  31.07°N, 98.18°W
Report Text: KLZZ 251855Z AUTO 20005KT 10SM CLR 29/17 A3013 RMK AO2 T02850167
Loading
Personal Weather Stations






























Interactive Weather Map
Tropical Storm Tracking
New forecast layout! Learn more

10-Day Weather Forecast

Advertisements
Track Severe Weather on mobile